NCAR-RAP Real-Time Weather Data

Output produced by METARs form (26 May 2022  08:38 UTC)
found at http://weather.rap.ucar.edu/surface/
 
KCPR 260753Z AUTO 33006KT 10SM CLR 04/02 A3002 RMK AO2 SLP134 T00390022
KCPR 260653Z AUTO 31003KT 10SM CLR 05/03 A3002 RMK AO2 SLP131 T00500028 402170000
KCPR 260553Z AUTO 04007KT 10SM CLR 07/04 A3002 RMK AO2 SLP132 T00670039 10211 20061 51010
KCPR 260453Z AUTO 29003KT 10SM CLR 07/04 A3001 RMK AO2 SLP131 T00720039
KCPR 260353Z AUTO 04005KT 10SM CLR 09/05 A3000 RMK AO2 SLP126 T00940050
KCPR 260253Z 07004KT 10SM CLR 12/04 A2998 RMK AO2 SLP120 T01220044 53003
KCPR 260153Z 04005KT 10SM CLR 15/06 A2998 RMK AO2 SLP117 T01500061
KCPR 260053Z 32009KT 10SM CLR 19/02 A2998 RMK AO2 SLP116 T01940017
KCPR 252353Z 29012G19KT 10SM CLR 21/01 A2997 RMK AO2 SLP117 T02110011 10217 20167 58007
KCPR 252253Z 31013KT 10SM CLR 21/01 A2998 RMK AO2 SLP123 T02060011
KCPR 252204Z 31013G21KT 10SM CLR 21/01 A2999 RMK AO2 T02110006
KCPR 252153Z 29015G23KT 10SM CLR 21/01 A2999 RMK AO2 SLP125 T02060006
KCPR 252053Z 30013G23KT 10SM CLR 20/00 A3000 RMK AO2 PK WND 28029/2036 SLP128 T02000000 56014
KCPR 251953Z 29018G27KT 10SM CLR 19/M01 A3002 RMK AO2 PK WND 29028/1939 SLP135 T01941011
KCPR 251853Z 28014G23KT 10SM CLR 19/01 A3002 RMK AO2 SLP134 T01940006
KCPR 251753Z 22011KT 10SM CLR 17/M01 A3005 RMK AO2 SLP147 T01671006 10172 20006 58010
KCPR 251653Z 21007G19KT 10SM FEW050 14/03 A3006 RMK AO2 SLP155 T01440028
KCPR 251553Z 22014G18KT 10SM CLR 13/04 A3008 RMK AO2 SLP163 T01280039
KCPR 251453Z 22014KT 10SM CLR 11/04 A3008 RMK AO2 SLP167 T01060039 50001
KCPR 251353Z 23011KT 10SM CLR 08/04 A3009 RMK AO2 SLP169 T00780039
KCPR 251253Z 26006KT 10SM CLR 04/02 A3009 RMK AO2 SLP173 T00390022
KCPR 251153Z 27008KT 10SM CLR 01/M01 A3008 RMK AO2 SLP178 70009 T00061006 10028 20000 53003
KCPR 251053Z 24008KT 10SM CLR 00/M01 A3007 RMK AO2 SLP178 T00001006
KCPR 250953Z AUTO 23010KT 10SM CLR 01/M01 A3006 RMK AO2 SLP180 T00061006
KCPR 250853Z AUTO 25008KT 10SM CLR 01/M01 A3006 RMK AO2 SLP179 T00061006 58005
KCPR 250753Z AUTO 23005KT 10SM CLR 02/01 A3007 RMK AO2 SLP171 T00170006
KCPR 250653Z AUTO 26005KT 10SM CLR 02/01 A3008 RMK AO2 SLP167 T00220006 401561033
KCPR 250553Z AUTO 28005KT 10SM CLR 03/01 A3008 RMK AO2 SLP164 T00280011 10111 20017 51007
KCPR 250453Z AUTO 26006KT 10SM CLR 04/02 A3008 RMK AO2 SLP168 T00390017
KCPR 250353Z AUTO 30005KT 10SM FEW090 04/03 A3008 RMK AO2 SLP169 T00440033
KCPR 250253Z 36005KT 10SM OVC090 06/03 A3006 RMK AO2 SLP163 T00610033 53012
KCPR 250153Z 07009KT 10SM CLR 09/03 A3004 RMK AO2 SLP157 T00890033
KCPR 250053Z 04006KT 10SM CLR 11/03 A3003 RMK AO2 SLP159 T01110033
KCPR 242353Z 06012KT 10SM FEW075 11/04 A3002 RMK AO2 SLP165 60009 T01060039 10144 20067 55005
KCPR 242331Z 06015G23KT 10SM BKN075 11/06 A3002 RMK AO2 T01110061
KCPR 242253Z 36008KT 10SM FEW016 SCT070 OVC095 10/04 A3001 RMK AO2 RAB18E36 SLP161 P0000 T01000039
KCPR 242153Z 32007KT 10SM FEW032 BKN046 OVC060 07/04 A3003 RMK AO2 RAE53 SLP175 P0009 T00720044
KCPR 242122Z 29005G23KT 7SM -RA FEW015 FEW025 OVC029 07/04 A3004 RMK AO2 P0004 T00670044
KCPR 242120Z 7SM R03/6000VP6000FT -RA FEW015 FEW025 OVC029 07/04 A3004 RMK AO2 P0004 T00720039
KCPR 242053Z 23015G24KT 9SM -RA FEW032 OVC055 08/03 A3004 RMK AO2 PK WND 24029/2040 WSHFT 2020 RAB35 SLP177 P0000 60000 T00780033 53011
KCPR 242040Z 24021G29KT 10SM -RA BKN060 OVC070 08/02 A3003 RMK AO2 PK WND 24029/2040 WSHFT 2020 RAB35 P0000 T00830022
KCPR 241953Z 29011KT 10SM BKN090 13/01 A2998 RMK AO2 SLP142 VIRGA SW T01280006
KCPR 241922Z 29010KT 10SM BKN060 OVC080 13/02 A2999 RMK AO2 LTG DSNT SW AND W VIRGA SW T01280017
KCPR 241853Z 13003KT 10SM BKN060 OVC100 14/M01 A2999 RMK AO2 SLP140 T01391006
KCPR 241753Z 34006KT 10SM FEW050 SCT060 SCT100 16/01 A3000 RMK AO2 SLP139 T01560011 10156 21028 58007
KCPR 241653Z VRB03KT 10SM FEW050 13/01 A3001 RMK AO2 SLP141 T01280011
KCPR 241553Z 00000KT 10SM CLR 11/02 A3002 RMK AO2 SLP147 T01110017
KCPR 241453Z 24005KT 10SM CLR 09/03 A3002 RMK AO2 SLP147 T00890028 58004
KCPR 241353Z 31003KT 10SM SCT095 06/03 A3003 RMK AO2 SLP151 T00610028
KCPR 241253Z 00000KT 10SM BKN100 01/01 A3004 RMK AO2 SLP164 T00110006
KCPR 241153Z 27003KT 10SM FEW120 M03/M03 A3004 RMK AO2 SLP172 T10281028 10022 21033 55004
KCPR 241053Z 00000KT 10SM CLR M03/M04 A3003 RMK AO2 SLP174 T10281039
KCPR 240953Z 00000KT 10SM CLR M03/M03 A3003 RMK AO2 SLP165 T10281033
KCPR 240853Z 32003KT 10SM CLR M02/M02 A3005 RMK AO2 SLP169 T10221022 56006